sensor_id;sensor_type;location;lat;lon;timestamp;pressure;altitude;pressure_sealevel;temperature;humidity
55217;BME280;41086;46.736;15.666;2022-12-13T00:00:44;98124.59;;;-6.80;100.00
55217;BME280;41086;46.736;15.666;2022-12-13T00:03:10;98126.28;;;-6.77;100.00
55217;BME280;41086;46.736;15.666;2022-12-13T00:05:43;98120.28;;;-6.78;100.00
55217;BME280;41086;46.736;15.666;2022-12-13T00:08:10;98112.56;;;-6.78;100.00
55217;BME280;41086;46.736;15.666;2022-12-13T00:10:36;98108.25;;;-6.79;100.00
55217;BME280;41086;46.736;15.666;2022-12-13T00:13:03;98118.53;;;-6.71;100.00
55217;BME280;41086;46.736;15.666;2022-12-13T00:15:30;98114.22;;;-6.71;100.00
55217;BME280;41086;46.736;15.666;2022-12-13T00:17:57;98111.66;;;-6.72;100.00
55217;BME280;41086;46.736;15.666;2022-12-13T00:20:23;98121.16;;;-6.76;100.00
55217;BME280;41086;46.736;15.666;2022-12-13T00:22:51;98120.31;;;-6.85;100.00
55217;BME280;41086;46.736;15.666;2022-12-13T00:25:17;98113.47;;;-6.88;100.00
55217;BME280;41086;46.736;15.666;2022-12-13T00:27:46;98103.16;;;-6.83;100.00
55217;BME280;41086;46.736;15.666;2022-12-13T00:30:13;98104.78;;;-6.73;100.00
55217;BME280;41086;46.736;15.666;2022-12-13T00:32:40;98115.09;;;-6.76;100.00
55217;BME280;41086;46.736;15.666;2022-12-13T00:35:07;98107.41;;;-6.82;100.00
55217;BME280;41086;46.736;15.666;2022-12-13T00:37:34;98118.63;;;-6.86;100.00
55217;BME280;41086;46.736;15.666;2022-12-13T00:40:00;98118.66;;;-6.94;100.00
55217;BME280;41086;46.736;15.666;2022-12-13T00:42:27;98119.50;;;-6.98;100.00
55217;BME280;41086;46.736;15.666;2022-12-13T00:44:54;98115.22;;;-6.92;100.00
55217;BME280;41086;46.736;15.666;2022-12-13T00:47:22;98117.75;;;-6.85;100.00
55217;BME280;41086;46.736;15.666;2022-12-13T00:49:49;98116.84;;;-6.80;100.00
55217;BME280;41086;46.736;15.666;2022-12-13T00:52:16;98119.41;;;-6.77;100.00
55217;BME280;41086;46.736;15.666;2022-12-13T00:54:42;98114.28;;;-6.84;100.00
55217;BME280;41086;46.736;15.666;2022-12-13T00:57:09;98130.63;;;-6.84;100.00
55217;BME280;41086;46.736;15.666;2022-12-13T00:59:36;98132.34;;;-6.87;100.00
55217;BME280;41086;46.736;15.666;2022-12-13T01:02:03;98111.84;;;-7.07;100.00
55217;BME280;41086;46.736;15.666;2022-12-13T01:04:29;98137.56;;;-6.97;100.00
55217;BME280;41086;46.736;15.666;2022-12-13T01:06:56;98161.63;;;-7.08;100.00
55217;BME280;41086;46.736;15.666;2022-12-13T01:09:24;98152.22;;;-7.17;100.00
55217;BME280;41086;46.736;15.666;2022-12-13T01:12:04;98142.78;;;-7.20;100.00
55217;BME280;41086;46.736;15.666;2022-12-13T01:14:35;98123.06;;;-7.21;100.00
55217;BME280;41086;46.736;15.666;2022-12-13T01:17:02;98129.88;;;-7.17;100.00
55217;BME280;41086;46.736;15.666;2022-12-13T01:19:29;98149.69;;;-7.26;100.00
55217;BME280;41086;46.736;15.666;2022-12-13T01:21:57;98154.00;;;-7.42;100.00
55217;BME280;41086;46.736;15.666;2022-12-13T01:24:25;98163.47;;;-7.53;100.00
55217;BME280;41086;46.736;15.666;2022-12-13T01:26:53;98148.03;;;-7.58;100.00
55217;BME280;41086;46.736;15.666;2022-12-13T01:29:23;98151.47;;;-7.56;100.00
55217;BME280;41086;46.736;15.666;2022-12-13T01:31:52;98154.03;;;-7.58;100.00
55217;BME280;41086;46.736;15.666;2022-12-13T01:34:21;98156.63;;;-7.62;100.00
55217;BME280;41086;46.736;15.666;2022-12-13T01:36:53;98161.78;;;-7.74;100.00
55217;BME280;41086;46.736;15.666;2022-12-13T01:39:25;98165.22;;;-7.86;100.00
55217;BME280;41086;46.736;15.666;2022-12-13T01:41:54;98172.06;;;-7.96;100.00
55217;BME280;41086;46.736;15.666;2022-12-13T01:47:35;98165.22;;;-8.05;100.00
55217;BME280;41086;46.736;15.666;2022-12-13T01:50:26;98161.81;;;-8.00;100.00
55217;BME280;41086;46.736;15.666;2022-12-13T01:52:54;98156.66;;;-8.02;100.00
55217;BME280;41086;46.736;15.666;2022-12-13T01:55:29;98145.50;;;-8.07;100.00
55217;BME280;41086;46.736;15.666;2022-12-13T01:58:00;98150.63;;;-8.01;100.00
55217;BME280;41086;46.736;15.666;2022-12-13T02:00:27;98148.06;;;-7.93;100.00
55217;BME280;41086;46.736;15.666;2022-12-13T02:02:56;98156.63;;;-7.93;100.00
55217;BME280;41086;46.736;15.666;2022-12-13T02:05:27;98144.63;;;-7.95;100.00
55217;BME280;41086;46.736;15.666;2022-12-13T02:07:57;98138.66;;;-7.97;100.00
55217;BME280;41086;46.736;15.666;2022-12-13T02:10:26;98150.63;;;-7.90;100.00
55217;BME280;41086;46.736;15.666;2022-12-13T02:12:54;98154.94;;;-7.92;100.00
55217;BME280;41086;46.736;15.666;2022-12-13T02:15:21;98166.06;;;-8.01;100.00
55217;BME280;41086;46.736;15.666;2022-12-13T02:31:48;98130.06;;;-7.83;100.00
55217;BME280;41086;46.736;15.666;2022-12-13T02:34:26;98147.22;;;-7.78;100.00
55217;BME280;41086;46.736;15.666;2022-12-13T02:37:14;98135.22;;;-7.84;100.00
55217;BME280;41086;46.736;15.666;2022-12-13T02:40:18;98142.06;;;-7.88;100.00
55217;BME280;41086;46.736;15.666;2022-12-13T02:42:49;98152.38;;;-7.92;100.00
55217;BME280;41086;46.736;15.666;2022-12-13T02:48:13;98134.34;;;-7.94;100.00
55217;BME280;41086;46.736;15.666;2022-12-13T02:50:43;98132.66;;;-7.95;100.00
55217;BME280;41086;46.736;15.666;2022-12-13T02:53:12;98142.94;;;-7.99;100.00
55217;BME280;41086;46.736;15.666;2022-12-13T02:55:41;98149.78;;;-8.05;100.00
55217;BME280;41086;46.736;15.666;2022-12-13T02:58:11;98148.06;;;-8.10;100.00
55217;BME280;41086;46.736;15.666;2022-12-13T03:03:36;98144.63;;;-8.20;100.00
55217;BME280;41086;46.736;15.666;2022-12-13T03:06:38;98140.38;;;-8.16;100.00
55217;BME280;41086;46.736;15.666;2022-12-13T03:11:52;98150.66;;;-8.10;100.00
55217;BME280;41086;46.736;15.666;2022-12-13T03:15:26;98141.22;;;-8.04;100.00
55217;BME280;41086;46.736;15.666;2022-12-13T03:18:04;98130.06;;;-8.04;100.00
55217;BME280;41086;46.736;15.666;2022-12-13T03:20:32;98147.22;;;-7.95;100.00
55217;BME280;41086;46.736;15.666;2022-12-13T03:22:59;98138.63;;;-7.93;100.00
55217;BME280;41086;46.736;15.666;2022-12-13T03:25:29;98142.91;;;-7.90;100.00
55217;BME280;41086;46.736;15.666;2022-12-13T03:27:59;98142.06;;;-7.85;100.00
55217;BME280;41086;46.736;15.666;2022-12-13T03:30:28;98145.50;;;-7.84;100.00
55217;BME280;41086;46.736;15.666;2022-12-13T03:32:55;98139.50;;;-7.88;100.00
55217;BME280;41086;46.736;15.666;2022-12-13T03:35:22;98130.94;;;-7.87;100.00
55217;BME280;41086;46.736;15.666;2022-12-13T03:38:00;98126.66;;;-7.92;100.00
55217;BME280;41086;46.736;15.666;2022-12-13T03:40:32;98138.66;;;-7.94;100.00
55217;BME280;41086;46.736;15.666;2022-12-13T03:43:00;98124.94;;;-7.95;100.00
55217;BME280;41086;46.736;15.666;2022-12-13T03:45:27;98128.34;;;-7.90;100.00
55217;BME280;41086;46.736;15.666;2022-12-13T03:47:53;98120.63;;;-7.82;100.00
55217;BME280;41086;46.736;15.666;2022-12-13T03:50:20;98118.91;;;-7.80;100.00
55217;BME280;41086;46.736;15.666;2022-12-13T03:53:00;98118.94;;;-7.82;100.00
55217;BME280;41086;46.736;15.666;2022-12-13T03:55:27;98122.34;;;-7.83;100.00
55217;BME280;41086;46.736;15.666;2022-12-13T03:57:55;98099.22;;;-7.95;100.00
55217;BME280;41086;46.736;15.666;2022-12-13T04:00:22;98121.50;;;-7.78;100.00
55217;BME280;41086;46.736;15.666;2022-12-13T04:02:49;98124.91;;;-7.75;100.00
55217;BME280;41086;46.736;15.666;2022-12-13T04:05:16;98127.47;;;-7.76;100.00
55217;BME280;41086;46.736;15.666;2022-12-13T04:07:43;98132.63;;;-7.83;100.00
55217;BME280;41086;46.736;15.666;2022-12-13T04:10:14;98136.94;;;-7.86;100.00
55217;BME280;41086;46.736;15.666;2022-12-13T04:12:52;98136.94;;;-7.91;100.00
55217;BME280;41086;46.736;15.666;2022-12-13T04:15:38;98140.34;;;-7.96;100.00
55217;BME280;41086;46.736;15.666;2022-12-13T04:18:05;98141.22;;;-7.96;100.00
55217;BME280;41086;46.736;15.666;2022-12-13T04:20:32;98142.91;;;-7.98;100.00
55217;BME280;41086;46.736;15.666;2022-12-13T04:22:58;98136.91;;;-7.95;100.00
55217;BME280;41086;46.736;15.666;2022-12-13T04:25:25;98143.78;;;-7.91;100.00
55217;BME280;41086;46.736;15.666;2022-12-13T04:27:52;98133.50;;;-7.91;100.00
55217;BME280;41086;46.736;15.666;2022-12-13T04:30:19;98129.22;;;-7.92;100.00
55217;BME280;41086;46.736;15.666;2022-12-13T04:32:46;98141.22;;;-7.93;100.00
55217;BME280;41086;46.736;15.666;2022-12-13T04:35:12;98135.19;;;-7.90;100.00
55217;BME280;41086;46.736;15.666;2022-12-13T04:37:40;98137.78;;;-7.93;100.00
55217;BME280;41086;46.736;15.666;2022-12-13T04:40:09;98134.34;;;-7.94;100.00
55217;BME280;41086;46.736;15.666;2022-12-13T04:42:36;98132.63;;;-7.93;100.00
55217;BME280;41086;46.736;15.666;2022-12-13T04:45:03;98111.22;;;-8.05;100.00
55217;BME280;41086;46.736;15.666;2022-12-13T04:47:30;98130.06;;;-7.92;100.00
55217;BME280;41086;46.736;15.666;2022-12-13T04:49:57;98129.22;;;-7.91;100.00
55217;BME280;41086;46.736;15.666;2022-12-13T04:52:23;98127.50;;;-7.92;100.00
55217;BME280;41086;46.736;15.666;2022-12-13T04:54:50;98131.78;;;-7.94;100.00
55217;BME280;41086;46.736;15.666;2022-12-13T04:57:21;98121.50;;;-7.95;100.00
55217;BME280;41086;46.736;15.666;2022-12-13T04:59:48;98124.94;;;-7.92;100.00
55217;BME280;41086;46.736;15.666;2022-12-13T05:02:15;98139.50;;;-7.95;100.00
55217;BME280;41086;46.736;15.666;2022-12-13T05:04:50;98148.06;;;-8.04;100.00
55217;BME280;41086;46.736;15.666;2022-12-13T05:07:21;98144.66;;;-8.14;100.00
55217;BME280;41086;46.736;15.666;2022-12-13T05:09:48;98146.34;;;-8.17;100.00
55217;BME280;41086;46.736;15.666;2022-12-13T05:12:15;98137.78;;;-8.21;100.00
55217;BME280;41086;46.736;15.666;2022-12-13T05:14:50;98136.94;;;-8.14;100.00
55217;BME280;41086;46.736;15.666;2022-12-13T05:17:17;98126.63;;;-8.09;100.00
55217;BME280;41086;46.736;15.666;2022-12-13T05:19:44;98127.50;;;-8.10;100.00
55217;BME280;41086;46.736;15.666;2022-12-13T05:22:11;98134.38;;;-8.18;100.00
55217;BME280;41086;46.736;15.666;2022-12-13T05:24:46;98143.78;;;-8.20;100.00
55217;BME280;41086;46.736;15.666;2022-12-13T05:27:13;98130.06;;;-8.21;100.00
55217;BME280;41086;46.736;15.666;2022-12-13T05:29:53;98123.22;;;-8.17;100.00
55217;BME280;41086;46.736;15.666;2022-12-13T05:32:34;98120.63;;;-8.14;100.00
55217;BME280;41086;46.736;15.666;2022-12-13T05:35:13;98119.78;;;-8.15;100.00
55217;BME280;41086;46.736;15.666;2022-12-13T05:37:49;98118.06;;;-8.14;100.00
55217;BME280;41086;46.736;15.666;2022-12-13T05:40:24;98116.38;;;-8.17;100.00
55217;BME280;41086;46.736;15.666;2022-12-13T05:42:51;98111.22;;;-8.18;100.00
55217;BME280;41086;46.736;15.666;2022-12-13T05:45:30;98107.78;;;-8.17;100.00
55217;BME280;41086;46.736;15.666;2022-12-13T05:47:58;98110.34;;;-8.14;100.00
55217;BME280;41086;46.736;15.666;2022-12-13T05:50:24;98114.63;;;-8.15;100.00
55217;BME280;41086;46.736;15.666;2022-12-13T05:52:51;98112.06;;;-8.18;100.00
55217;BME280;41086;46.736;15.666;2022-12-13T05:55:18;98116.38;;;-8.18;100.00
55217;BME280;41086;46.736;15.666;2022-12-13T05:57:45;98120.66;;;-8.20;100.00
55217;BME280;41086;46.736;15.666;2022-12-13T06:00:17;98112.94;;;-8.22;100.00
55217;BME280;41086;46.736;15.666;2022-12-13T06:02:57;98119.78;;;-8.24;100.00
55217;BME280;41086;46.736;15.666;2022-12-13T06:05:30;98115.50;;;-8.23;100.00
55217;BME280;41086;46.736;15.666;2022-12-13T06:07:57;98113.81;;;-8.21;100.00
55217;BME280;41086;46.736;15.666;2022-12-13T06:10:26;98112.06;;;-8.29;100.00
55217;BME280;41086;46.736;15.666;2022-12-13T06:13:02;98105.22;;;-8.34;100.00
55217;BME280;41086;46.736;15.666;2022-12-13T06:15:48;98111.22;;;-8.34;100.00
55217;BME280;41086;46.736;15.666;2022-12-13T06:18:15;98120.66;;;-8.33;100.00
55217;BME280;41086;46.736;15.666;2022-12-13T06:20:41;98117.22;;;-8.35;100.00
55217;BME280;41086;46.736;15.666;2022-12-13T06:23:08;98114.63;;;-8.33;100.00
55217;BME280;41086;46.736;15.666;2022-12-13T06:25:35;98115.50;;;-8.31;100.00
55217;BME280;41086;46.736;15.666;2022-12-13T06:28:02;98101.84;;;-8.41;100.00
55217;BME280;41086;46.736;15.666;2022-12-13T06:30:30;98132.63;;;-8.36;100.00
55217;BME280;41086;46.736;15.666;2022-12-13T06:32:56;98153.19;;;-8.56;100.00
55217;BME280;41086;46.736;15.666;2022-12-13T06:35:23;98157.44;;;-8.66;100.00
55217;BME280;41086;46.736;15.666;2022-12-13T06:37:54;98148.88;;;-8.70;100.00
55217;BME280;41086;46.736;15.666;2022-12-13T06:40:28;98135.19;;;-8.67;100.00
55217;BME280;41086;46.736;15.666;2022-12-13T06:42:56;98131.78;;;-8.61;100.00
55217;BME280;41086;46.736;15.666;2022-12-13T06:45:23;98120.63;;;-8.63;100.00
55217;BME280;41086;46.736;15.666;2022-12-13T06:47:50;98145.47;;;-8.67;100.00
55217;BME280;41086;46.736;15.666;2022-12-13T06:50:17;98154.84;;;-8.77;100.00
55217;BME280;41086;46.736;15.666;2022-12-13T06:52:47;98155.72;;;-8.78;100.00
55217;BME280;41086;46.736;15.666;2022-12-13T06:55:14;98141.16;;;-8.77;100.00
55217;BME280;41086;46.736;15.666;2022-12-13T06:57:50;98133.47;;;-8.70;100.00
55217;BME280;41086;46.736;15.666;2022-12-13T07:00:17;98129.22;;;-8.57;100.00
55217;BME280;41086;46.736;15.666;2022-12-13T07:02:54;98124.09;;;-8.43;100.00
55217;BME280;41086;46.736;15.666;2022-12-13T07:05:21;98131.81;;;-8.25;100.00
55217;BME280;41086;46.736;15.666;2022-12-13T07:07:48;98128.34;;;-8.07;100.00
55217;BME280;41086;46.736;15.666;2022-12-13T07:10:15;98124.91;;;-7.93;100.00
55217;BME280;41086;46.736;15.666;2022-12-13T07:12:48;98146.34;;;-7.88;100.00
55217;BME280;41086;46.736;15.666;2022-12-13T07:15:15;98148.94;;;-7.87;100.00
55217;BME280;41086;46.736;15.666;2022-12-13T07:17:42;98152.38;;;-7.82;100.00
55217;BME280;41086;46.736;15.666;2022-12-13T07:20:10;98149.78;;;-7.77;100.00
55217;BME280;41086;46.736;15.666;2022-12-13T07:22:38;98148.94;;;-7.76;100.00
55217;BME280;41086;46.736;15.666;2022-12-13T07:25:14;98159.22;;;-7.73;100.00
55217;BME280;41086;46.736;15.666;2022-12-13T07:27:56;98159.22;;;-7.70;100.00
55217;BME280;41086;46.736;15.666;2022-12-13T07:30:29;98162.63;;;-7.65;100.00
55217;BME280;41086;46.736;15.666;2022-12-13T07:32:56;98160.06;;;-7.62;100.00
55217;BME280;41086;46.736;15.666;2022-12-13T07:35:23;98177.19;;;-7.54;100.00
55217;BME280;41086;46.736;15.666;2022-12-13T07:37:50;98179.75;;;-7.39;100.00
55217;BME280;41086;46.736;15.666;2022-12-13T07:40:17;98180.56;;;-7.20;100.00
55217;BME280;41086;46.736;15.666;2022-12-13T07:42:51;98186.56;;;-7.15;100.00
55217;BME280;41086;46.736;15.666;2022-12-13T07:45:19;98188.22;;;-7.03;100.00
55217;BME280;41086;46.736;15.666;2022-12-13T07:47:46;98188.19;;;-6.88;100.00
55217;BME280;41086;46.736;15.666;2022-12-13T07:50:14;98201.06;;;-6.86;100.00
55217;BME280;41086;46.736;15.666;2022-12-13T07:52:51;98205.34;;;-6.78;100.00
55217;BME280;41086;46.736;15.666;2022-12-13T07:55:19;98194.91;;;-6.58;100.00
55217;BME280;41086;46.736;15.666;2022-12-13T07:58:16;98199.97;;;-6.38;100.00
55217;BME280;41086;46.736;15.666;2022-12-13T08:00:44;98205.16;;;-6.42;100.00
55217;BME280;41086;46.736;15.666;2022-12-13T08:03:13;98206.81;;;-6.29;100.00
55217;BME280;41086;46.736;15.666;2022-12-13T08:06:06;98199.03;;;-6.21;100.00
55217;BME280;41086;46.736;15.666;2022-12-13T08:08:33;98193.97;;;-6.37;100.00
55217;BME280;41086;46.736;15.666;2022-12-13T08:11:00;98208.56;;;-6.39;100.00
55217;BME280;41086;46.736;15.666;2022-12-13T08:13:27;98195.66;;;-6.31;100.00
55217;BME280;41086;46.736;15.666;2022-12-13T08:16:02;98202.38;;;-6.09;100.00
55217;BME280;41086;46.736;15.666;2022-12-13T08:18:29;98209.00;;;-5.79;100.00
55217;BME280;41086;46.736;15.666;2022-12-13T08:20:57;98214.06;;;-5.65;100.00
55217;BME280;41086;46.736;15.666;2022-12-13T08:23:25;98210.59;;;-5.61;100.00
55217;BME280;41086;46.736;15.666;2022-12-13T08:25:53;98215.69;;;-5.53;100.00
55217;BME280;41086;46.736;15.666;2022-12-13T08:28:21;98216.47;;;-5.46;100.00
55217;BME280;41086;46.736;15.666;2022-12-13T08:30:48;98220.59;;;-5.27;100.00
55217;BME280;41086;46.736;15.666;2022-12-13T08:33:16;98230.00;;;-5.17;100.00
55217;BME280;41086;46.736;15.666;2022-12-13T08:35:45;98225.66;;;-5.16;100.00
55217;BME280;41086;46.736;15.666;2022-12-13T08:38:12;98220.47;;;-5.13;100.00
55217;BME280;41086;46.736;15.666;2022-12-13T08:40:49;98225.56;;;-5.04;100.00
55217;BME280;41086;46.736;15.666;2022-12-13T08:43:17;98220.44;;;-5.07;100.00
55217;BME280;41086;46.736;15.666;2022-12-13T08:45:50;98216.03;;;-4.99;100.00
55217;BME280;41086;46.736;15.666;2022-12-13T08:48:17;98216.91;;;-5.03;100.00
55217;BME280;41086;46.736;15.666;2022-12-13T08:50:44;98228.22;;;-5.12;100.00
55217;BME280;41086;46.736;15.666;2022-12-13T08:53:11;98235.22;;;-5.23;100.00
55217;BME280;41086;46.736;15.666;2022-12-13T08:56:05;98227.28;;;-5.06;100.00
55217;BME280;41086;46.736;15.666;2022-12-13T08:58:32;98230.53;;;-4.87;100.00
55217;BME280;41086;46.736;15.666;2022-12-13T09:00:59;98224.38;;;-4.72;100.00
55217;BME280;41086;46.736;15.666;2022-12-13T09:03:26;98230.47;;;-4.81;100.00
55217;BME280;41086;46.736;15.666;2022-12-13T09:05:53;98227.06;;;-4.84;100.00
55217;BME280;41086;46.736;15.666;2022-12-13T09:08:20;98226.94;;;-4.74;100.00
55217;BME280;41086;46.736;15.666;2022-12-13T09:10:58;98233.69;;;-4.60;100.00
55217;BME280;41086;46.736;15.666;2022-12-13T09:13:30;98230.25;;;-4.61;100.00
55217;BME280;41086;46.736;15.666;2022-12-13T09:16:07;98224.75;;;-4.35;100.00
55217;BME280;41086;46.736;15.666;2022-12-13T09:18:40;98216.31;;;-4.51;100.00
55217;BME280;41086;46.736;15.666;2022-12-13T09:21:10;98212.69;;;-4.37;100.00
55217;BME280;41086;46.736;15.666;2022-12-13T09:23:38;98216.78;;;-4.18;100.00
55217;BME280;41086;46.736;15.666;2022-12-13T09:26:14;98213.50;;;-4.31;100.00
55217;BME280;41086;46.736;15.666;2022-12-13T09:28:41;98210.91;;;-4.32;100.00
55217;BME280;41086;46.736;15.666;2022-12-13T09:31:12;98215.00;;;-4.14;100.00
55217;BME280;41086;46.736;15.666;2022-12-13T09:33:39;98202.69;;;-3.98;100.00
55217;BME280;41086;46.736;15.666;2022-12-13T09:36:10;98207.56;;;-3.80;100.00
55217;BME280;41086;46.736;15.666;2022-12-13T09:38:38;98196.16;;;-3.68;100.00
55217;BME280;41086;46.736;15.666;2022-12-13T09:41:24;98193.25;;;-3.48;100.00
55217;BME280;41086;46.736;15.666;2022-12-13T09:44:05;98191.72;;;-3.10;100.00
55217;BME280;41086;46.736;15.666;2022-12-13T09:46:54;98190.41;;;-2.88;100.00
55217;BME280;41086;46.736;15.666;2022-12-13T09:49:33;98184.84;;;-3.13;100.00
55217;BME280;41086;46.736;15.666;2022-12-13T09:52:03;98180.16;;;-2.94;100.00
55217;BME280;41086;46.736;15.666;2022-12-13T09:54:38;98178.34;;;-2.47;100.00
55217;BME280;41086;46.736;15.666;2022-12-13T09:57:21;98170.28;;;-2.33;100.00
55217;BME280;41086;46.736;15.666;2022-12-13T10:00:10;98170.56;;;-2.47;100.00
55217;BME280;41086;46.736;15.666;2022-12-13T10:02:49;98174.56;;;-2.32;100.00
55217;BME280;41086;46.736;15.666;2022-12-13T10:05:36;98176.00;;;-2.58;100.00
55217;BME280;41086;46.736;15.666;2022-12-13T10:08:19;98173.16;;;-2.47;100.00
55217;BME280;41086;46.736;15.666;2022-12-13T10:10:49;98167.47;;;-2.64;100.00
55217;BME280;41086;46.736;15.666;2022-12-13T10:13:20;98173.97;;;-2.45;100.00
55217;BME280;41086;46.736;15.666;2022-12-13T10:15:54;98159.47;;;-2.54;100.00
55217;BME280;41086;46.736;15.666;2022-12-13T10:18:34;98166.47;;;-2.18;100.00
55217;BME280;41086;46.736;15.666;2022-12-13T10:21:05;98157.06;;;-2.22;100.00
55217;BME280;41086;46.736;15.666;2022-12-13T10:23:33;98145.81;;;-1.86;100.00
55217;BME280;41086;46.736;15.666;2022-12-13T10:26:20;98152.81;;;-1.53;91.42
55217;BME280;41086;46.736;15.666;2022-12-13T10:29:00;98153.81;;;-1.25;98.43
55217;BME280;41086;46.736;15.666;2022-12-13T10:31:28;98153.50;;;-1.14;93.42
55217;BME280;41086;46.736;15.666;2022-12-13T10:33:56;98151.63;;;-1.09;89.61
55217;BME280;41086;46.736;15.666;2022-12-13T10:36:34;98148.25;;;-0.80;85.48
55217;BME280;41086;46.736;15.666;2022-12-13T10:39:01;98141.13;;;-0.73;85.94
55217;BME280;41086;46.736;15.666;2022-12-13T10:41:35;98146.34;;;-0.73;84.69
55217;BME280;41086;46.736;15.666;2022-12-13T10:46:40;98143.97;;;0.05;88.18
55217;BME280;41086;46.736;15.666;2022-12-13T10:49:20;98137.94;;;0.30;84.62
55217;BME280;41086;46.736;15.666;2022-12-13T10:51:49;98136.09;;;0.60;83.57
55217;BME280;41086;46.736;15.666;2022-12-13T10:54:28;98132.59;;;0.86;85.90
55217;BME280;41086;46.736;15.666;2022-12-13T10:57:13;98127.13;;;0.69;81.85
55217;BME280;41086;46.736;15.666;2022-12-13T10:59:43;98128.28;;;0.85;80.01
55217;BME280;41086;46.736;15.666;2022-12-13T11:04:53;98115.66;;;1.90;76.81
55217;BME280;41086;46.736;15.666;2022-12-13T11:07:31;98116.34;;;2.38;73.17
55217;BME280;41086;46.736;15.666;2022-12-13T11:10:16;98112.84;;;1.95;69.67
55217;BME280;41086;46.736;15.666;2022-12-13T11:12:49;98102.38;;;1.51;73.15
55217;BME280;41086;46.736;15.666;2022-12-13T11:15:19;98109.84;;;1.60;78.32
55217;BME280;41086;46.736;15.666;2022-12-13T11:17:57;98098.59;;;2.04;78.14
55217;BME280;41086;46.736;15.666;2022-12-13T11:20:33;98097.13;;;2.59;75.43
55217;BME280;41086;46.736;15.666;2022-12-13T11:23:14;98095.97;;;3.06;74.53
55217;BME280;41086;46.736;15.666;2022-12-13T11:25:45;98085.69;;;3.41;71.51
55217;BME280;41086;46.736;15.666;2022-12-13T11:31:10;98085.88;;;3.74;65.63
55217;BME280;41086;46.736;15.666;2022-12-13T11:44:30;98065.88;;;3.35;67.02
55217;BME280;41086;46.736;15.666;2022-12-13T11:47:04;98064.28;;;3.50;67.09
55217;BME280;41086;46.736;15.666;2022-12-13T11:49:40;98059.19;;;3.66;65.31
55217;BME280;41086;46.736;15.666;2022-12-13T11:52:26;98065.34;;;4.01;64.61
55217;BME280;41086;46.736;15.666;2022-12-13T11:55:05;98061.31;;;4.13;67.91
55217;BME280;41086;46.736;15.666;2022-12-13T11:57:58;98064.84;;;3.75;61.80
55217;BME280;41086;46.736;15.666;2022-12-13T12:00:31;98070.34;;;4.07;66.34
55217;BME280;41086;46.736;15.666;2022-12-13T12:03:15;98065.41;;;4.36;64.43
55217;BME280;41086;46.736;15.666;2022-12-13T12:05:56;98058.81;;;4.10;64.46
55217;BME280;41086;46.736;15.666;2022-12-13T12:08:39;98058.78;;;3.75;64.62
55217;BME280;41086;46.736;15.666;2022-12-13T12:11:19;98050.72;;;3.97;66.67
55217;BME280;41086;46.736;15.666;2022-12-13T12:13:53;98051.56;;;4.15;66.98
55217;BME280;41086;46.736;15.666;2022-12-13T12:16:37;98057.16;;;4.26;64.59
55217;BME280;41086;46.736;15.666;2022-12-13T12:19:17;98052.50;;;4.31;65.90
55217;BME280;41086;46.736;15.666;2022-12-13T12:22:18;98045.16;;;4.20;65.26
55217;BME280;41086;46.736;15.666;2022-12-13T12:30:23;98046.44;;;3.20;68.61
55217;BME280;41086;46.736;15.666;2022-12-13T12:33:04;98045.34;;;3.45;70.91
55217;BME280;41086;46.736;15.666;2022-12-13T12:53:17;98028.50;;;3.13;72.37
55217;BME280;41086;46.736;15.666;2022-12-13T12:56:04;98036.31;;;2.34;74.36
55217;BME280;41086;46.736;15.666;2022-12-13T12:59:13;98023.44;;;1.87;80.72
55217;BME280;41086;46.736;15.666;2022-12-13T13:02:04;98011.31;;;1.20;87.39
55217;BME280;41086;46.736;15.666;2022-12-13T13:04:43;98004.75;;;1.31;89.15
55217;BME280;41086;46.736;15.666;2022-12-13T13:07:17;98019.06;;;1.21;90.71
55217;BME280;41086;46.736;15.666;2022-12-13T13:09:50;98002.78;;;0.93;92.23
55217;BME280;41086;46.736;15.666;2022-12-13T13:12:22;98005.75;;;0.58;95.50
55217;BME280;41086;46.736;15.666;2022-12-13T13:14:56;98012.53;;;0.39;99.07
55217;BME280;41086;46.736;15.666;2022-12-13T13:22:51;98010.03;;;-0.42;100.00
55217;BME280;41086;46.736;15.666;2022-12-13T13:25:38;98011.88;;;-0.73;100.00
55217;BME280;41086;46.736;15.666;2022-12-13T13:28:25;98021.81;;;-0.87;100.00
55217;BME280;41086;46.736;15.666;2022-12-13T13:31:06;98023.84;;;-0.97;100.00
55217;BME280;41086;46.736;15.666;2022-12-13T13:33:45;98024.09;;;-1.06;100.00
55217;BME280;41086;46.736;15.666;2022-12-13T13:39:14;98024.88;;;-1.32;100.00
55217;BME280;41086;46.736;15.666;2022-12-13T13:58:43;98039.06;;;-1.44;100.00
55217;BME280;41086;46.736;15.666;2022-12-13T14:22:38;98044.75;;;-1.95;100.00
55217;BME280;41086;46.736;15.666;2022-12-13T14:30:43;98031.88;;;-1.99;100.00
55217;BME280;41086;46.736;15.666;2022-12-13T14:33:23;98030.97;;;-1.98;100.00
55217;BME280;41086;46.736;15.666;2022-12-13T14:35:59;98036.25;;;-2.02;100.00
55217;BME280;41086;46.736;15.666;2022-12-13T14:38:29;98031.97;;;-2.04;100.00
55217;BME280;41086;46.736;15.666;2022-12-13T14:40:59;98034.66;;;-2.07;100.00
55217;BME280;41086;46.736;15.666;2022-12-13T14:43:28;98037.25;;;-2.07;100.00
55217;BME280;41086;46.736;15.666;2022-12-13T14:46:01;98032.06;;;-2.07;100.00
55217;BME280;41086;46.736;15.666;2022-12-13T14:48:51;98036.31;;;-2.03;100.00
55217;BME280;41086;46.736;15.666;2022-12-13T14:51:31;98040.59;;;-2.02;100.00
55217;BME280;41086;46.736;15.666;2022-12-13T14:53:59;98042.63;;;-2.15;100.00
55217;BME280;41086;46.736;15.666;2022-12-13T14:56:27;98039.09;;;-2.12;100.00
55217;BME280;41086;46.736;15.666;2022-12-13T14:59:02;98037.50;;;-2.18;100.00
55217;BME280;41086;46.736;15.666;2022-12-13T15:01:34;98035.81;;;-2.19;100.00
55217;BME280;41086;46.736;15.666;2022-12-13T15:04:34;98035.09;;;-2.26;100.00
55217;BME280;41086;46.736;15.666;2022-12-13T15:09:55;98037.84;;;-2.30;100.00
55217;BME280;41086;46.736;15.666;2022-12-13T15:12:23;98031.00;;;-2.34;100.00